createdAt,value
2019-04-20T00:01:26.308Z,8.75
2019-04-20T00:03:55.307Z,8.75
2019-04-20T00:06:31.754Z,8.74
2019-04-20T00:09:09.705Z,8.72
2019-04-20T00:11:50.241Z,8.71
2019-04-20T00:14:17.257Z,8.68
2019-04-20T00:16:46.052Z,8.65
2019-04-20T00:19:26.166Z,8.64
2019-04-20T00:21:59.587Z,8.60
2019-04-20T00:24:37.224Z,8.58
2019-04-20T00:27:32.850Z,8.53
2019-04-20T00:30:00.149Z,8.47
2019-04-20T00:32:29.529Z,8.44
2019-04-20T00:34:51.164Z,8.40
2019-04-20T00:37:23.439Z,8.37
2019-04-20T00:39:56.481Z,8.36
2019-04-20T00:42:33.960Z,8.36
2019-04-20T00:45:10.726Z,8.33
2019-04-20T00:47:45.399Z,8.32
2019-04-20T00:50:29.762Z,8.35
2019-04-20T00:52:55.597Z,8.32
2019-04-20T00:55:17.041Z,8.32
2019-04-20T00:57:55.341Z,8.33
2019-04-20T01:00:38.310Z,8.33
2019-04-20T01:03:15.787Z,8.32
2019-04-20T01:05:52.943Z,8.32
2019-04-20T01:08:08.173Z,8.32
2019-04-20T01:10:47.208Z,8.29
2019-04-20T01:13:18.696Z,8.29
2019-04-20T01:15:55.353Z,8.32
2019-04-20T01:18:24.054Z,8.32
2019-04-20T01:21:00.301Z,8.29
2019-04-20T01:23:38.225Z,8.30
2019-04-20T01:26:10.937Z,8.27
2019-04-20T01:28:54.203Z,8.27
2019-04-20T01:31:25.371Z,8.30
2019-04-20T01:33:56.591Z,8.26
2019-04-20T01:36:40.628Z,8.26
2019-04-20T01:39:09.214Z,8.26
2019-04-20T01:41:28.512Z,8.22
2019-04-20T01:44:00.583Z,8.23
2019-04-20T01:46:33.747Z,8.20
2019-04-20T01:49:11.501Z,8.16
2019-04-20T01:51:55.603Z,8.17
2019-04-20T01:54:29.858Z,8.15
2019-04-20T01:56:58.891Z,8.12
2019-04-20T01:59:37.095Z,8.08
2019-04-20T02:02:14.059Z,8.08
2019-04-20T02:04:47.311Z,8.08
2019-04-20T02:07:25.567Z,8.04
2019-04-20T02:09:58.295Z,8.04
2019-04-20T02:12:31.158Z,7.98
2019-04-20T02:15:04.326Z,7.94
2019-04-20T02:17:40.811Z,7.94
2019-04-20T02:20:28.696Z,7.91
2019-04-20T02:22:59.410Z,7.88
2019-04-20T02:25:18.555Z,7.85
2019-04-20T02:27:57.823Z,7.81
2019-04-20T02:31:06.340Z,7.81
2019-04-20T02:36:15.476Z,7.72
2019-04-20T02:39:05.860Z,7.68
2019-04-20T02:41:17.890Z,7.65
2019-04-20T02:46:24.835Z,7.58
2019-04-20T02:49:01.028Z,7.54
2019-04-20T02:51:35.460Z,7.51
2019-04-20T02:56:49.217Z,7.47
2019-04-20T02:59:43.226Z,7.41
2019-04-20T03:01:36.660Z,7.38
2019-04-20T03:03:54.938Z,7.37
2019-04-20T03:06:36.443Z,7.33
2019-04-20T03:09:20.370Z,7.27
2019-04-20T03:11:59.648Z,7.24
2019-04-20T03:14:21.790Z,7.22
2019-04-20T03:16:54.770Z,7.17
2019-04-20T03:19:23.679Z,7.16
2019-04-20T03:22:09.829Z,7.12
2019-04-20T03:24:43.928Z,7.06
2019-04-20T03:27:14.870Z,7.03
2019-04-20T03:29:46.976Z,7.02
2019-04-20T03:32:50.091Z,6.99
2019-04-20T03:35:08.132Z,6.96
2019-04-20T03:37:36.981Z,6.95
2019-04-20T03:39:56.817Z,6.92
2019-04-20T03:42:18.186Z,6.92
2019-04-20T03:44:57.068Z,6.89
2019-04-20T03:47:34.881Z,6.88
2019-04-20T03:50:18.526Z,6.85
2019-04-20T03:52:58.322Z,6.85
2019-04-20T03:55:44.574Z,6.82
2019-04-20T03:58:24.162Z,6.82
2019-04-20T04:01:16.309Z,6.79
2019-04-20T04:04:02.624Z,6.79
2019-04-20T04:06:24.262Z,6.79
2019-04-20T04:09:02.801Z,6.76
2019-04-20T04:11:37.904Z,6.78
2019-04-20T04:13:54.660Z,6.79
2019-04-20T04:16:32.822Z,6.79
2019-04-20T04:19:10.067Z,6.78
2019-04-20T04:21:46.824Z,6.80
2019-04-20T04:24:21.192Z,6.78
2019-04-20T04:26:55.997Z,6.82
2019-04-20T04:29:35.588Z,6.80
2019-04-20T04:32:12.091Z,6.83
2019-04-20T04:34:38.518Z,6.85
2019-04-20T04:37:17.624Z,6.83
2019-04-20T04:39:49.242Z,6.83
2019-04-20T04:42:37.808Z,6.85
2019-04-20T04:44:46.786Z,6.85
2019-04-20T04:47:13.396Z,6.83
2019-04-20T04:49:53.875Z,6.83
2019-04-20T04:52:27.524Z,6.88
2019-04-20T04:54:58.753Z,6.90
2019-04-20T04:57:24.838Z,6.93
2019-04-20T04:59:57.314Z,6.99
2019-04-20T05:02:39.335Z,7.04
2019-04-20T05:05:37.787Z,7.12
2019-04-20T05:08:01.883Z,7.13
2019-04-20T05:10:22.393Z,7.20
2019-04-20T05:12:54.814Z,7.24
2019-04-20T05:15:41.276Z,7.29
2019-04-20T05:18:20.659Z,7.37
2019-04-20T05:20:58.803Z,7.43
2019-04-20T05:23:28.078Z,7.45
2019-04-20T05:26:13.801Z,7.57
2019-04-20T05:28:48.607Z,7.61
2019-04-20T05:31:12.232Z,7.68
2019-04-20T05:34:10.847Z,7.74
2019-04-20T05:36:41.498Z,7.81
2019-04-20T05:39:23.587Z,7.88
2019-04-20T05:41:42.937Z,7.94
2019-04-20T05:44:17.029Z,8.01
2019-04-20T05:46:56.563Z,8.08
2019-04-20T05:49:33.123Z,8.12
2019-04-20T05:52:10.260Z,8.19
2019-04-20T05:54:39.099Z,8.27
2019-04-20T05:57:17.206Z,8.33
2019-04-20T05:59:54.305Z,8.37
2019-04-20T06:02:16.865Z,8.44
2019-04-20T06:04:59.959Z,8.53
2019-04-20T06:07:27.151Z,8.56
2019-04-20T06:09:59.422Z,8.63
2019-04-20T06:12:31.841Z,8.68
2019-04-20T06:15:09.467Z,8.77
2019-04-20T06:18:03.844Z,8.81
2019-04-20T06:20:41.221Z,8.91
2019-04-20T06:23:38.706Z,8.97
2019-04-20T06:26:33.548Z,9.05
2019-04-20T06:28:38.801Z,9.15
2019-04-20T06:31:26.697Z,9.21
2019-04-20T06:34:27.137Z,9.31
2019-04-20T06:36:49.829Z,9.38
2019-04-20T06:47:10.370Z,9.66
2019-04-20T06:49:40.618Z,9.74
2019-04-20T06:55:05.155Z,9.92
2019-04-20T07:00:15.634Z,10.10
2019-04-20T07:02:48.553Z,10.20
2019-04-20T07:08:00.762Z,10.39
2019-04-20T07:10:34.696Z,10.46
2019-04-20T07:12:59.804Z,10.59
2019-04-20T07:15:41.189Z,10.71
2019-04-20T07:18:25.407Z,10.80
2019-04-20T07:21:17.211Z,10.90
2019-04-20T07:23:35.255Z,11.00
2019-04-20T07:26:09.543Z,11.11
2019-04-20T07:31:08.476Z,11.33
2019-04-20T07:33:48.231Z,11.43
2019-04-20T07:36:27.976Z,11.54
2019-04-20T07:38:56.799Z,11.64
2019-04-20T07:41:33.183Z,11.74
2019-04-20T07:44:07.295Z,11.84
2019-04-20T07:46:47.500Z,11.91
2019-04-20T07:49:07.676Z,11.99
2019-04-20T07:51:26.602Z,12.08
2019-04-20T07:54:23.240Z,12.13
2019-04-20T07:56:50.507Z,12.19
2019-04-20T07:59:14.963Z,12.26
2019-04-20T08:02:15.971Z,12.36
2019-04-20T08:04:43.498Z,12.42
2019-04-20T08:07:03.524Z,12.49
2019-04-20T08:09:42.200Z,12.60
2019-04-20T08:12:51.796Z,12.68
2019-04-20T08:15:32.444Z,12.75
2019-04-20T08:18:10.380Z,12.87
2019-04-20T08:20:24.558Z,12.95
2019-04-20T08:23:12.275Z,13.05
2019-04-20T08:25:27.794Z,13.19
2019-04-20T08:28:13.567Z,13.29
2019-04-20T08:31:09.445Z,13.41
2019-04-20T08:34:04.415Z,13.55
2019-04-20T08:36:30.091Z,13.62
2019-04-20T08:41:28.901Z,13.76
2019-04-20T08:44:21.110Z,13.80
2019-04-20T08:46:45.566Z,13.89
2019-04-20T08:49:20.468Z,13.94
2019-04-20T08:51:59.952Z,14.00
2019-04-20T08:54:18.100Z,14.06
2019-04-20T08:56:43.439Z,14.08
2019-04-20T08:59:09.374Z,14.16
2019-04-20T09:01:44.479Z,14.23
2019-04-20T09:04:25.464Z,14.28
2019-04-20T09:07:04.468Z,14.35
2019-04-20T09:10:00.389Z,14.45
2019-04-20T09:12:15.860Z,14.48
2019-04-20T09:14:34.751Z,14.54
2019-04-20T09:17:11.459Z,14.62
2019-04-20T09:19:52.707Z,14.69
2019-04-20T09:22:40.618Z,14.76
2019-04-20T09:28:14.516Z,14.98
2019-04-20T09:30:51.183Z,15.09
2019-04-20T09:33:48.703Z,15.17
2019-04-20T09:36:18.240Z,15.24
2019-04-20T09:39:05.895Z,15.37
2019-04-20T09:41:58.953Z,15.47
2019-04-20T09:44:11.012Z,15.54
2019-04-20T09:46:48.987Z,15.64
2019-04-20T09:49:30.718Z,15.73
2019-04-20T09:52:06.609Z,15.85
2019-04-20T09:54:41.638Z,15.94
2019-04-20T09:57:21.313Z,16.01
2019-04-20T09:59:52.653Z,16.09
2019-04-20T10:02:11.240Z,16.16
2019-04-20T10:04:39.810Z,16.24
2019-04-20T10:07:17.637Z,16.26
2019-04-20T10:09:47.340Z,16.39
2019-04-20T10:12:20.151Z,16.40
2019-04-20T10:14:53.197Z,16.45
2019-04-20T10:17:27.217Z,16.46
2019-04-20T10:20:02.553Z,16.46
2019-04-20T10:22:32.929Z,16.46
2019-04-20T10:25:06.644Z,16.46
2019-04-20T10:27:40.612Z,16.46
2019-04-20T10:30:12.555Z,16.47
2019-04-20T10:32:47.175Z,16.46
2019-04-20T10:35:18.822Z,16.45
2019-04-20T10:38:05.312Z,16.47
2019-04-20T10:40:47.547Z,16.50
2019-04-20T10:43:12.018Z,16.52
2019-04-20T10:45:44.860Z,16.52
2019-04-20T10:48:17.315Z,16.53
2019-04-20T10:50:49.352Z,16.55
2019-04-20T10:53:21.827Z,16.59
2019-04-20T10:55:53.880Z,16.59
2019-04-20T10:58:25.686Z,16.63
2019-04-20T11:00:57.776Z,16.69
2019-04-20T11:03:29.779Z,16.71
2019-04-20T11:06:02.769Z,16.76
2019-04-20T11:08:34.918Z,16.84
2019-04-20T11:11:14.602Z,16.91
2019-04-20T11:13:41.466Z,16.94
2019-04-20T11:16:14.712Z,17.04
2019-04-20T11:18:47.305Z,17.08
2019-04-20T11:21:19.629Z,17.17
2019-04-20T11:23:54.038Z,17.21
2019-04-20T11:26:28.496Z,17.29
2019-04-20T11:29:00.600Z,17.35
2019-04-20T11:31:40.571Z,17.43
2019-04-20T11:34:06.060Z,17.49
2019-04-20T11:36:39.234Z,17.59
2019-04-20T11:39:12.820Z,17.68
2019-04-20T11:41:45.722Z,17.80
2019-04-20T11:44:17.933Z,17.88
2019-04-20T11:46:50.368Z,17.99
2019-04-20T11:49:23.558Z,18.09
2019-04-20T11:51:57.243Z,18.27
2019-04-20T11:54:30.430Z,18.37
2019-04-20T11:57:03.715Z,18.53
2019-04-20T11:59:37.031Z,18.72
2019-04-20T12:02:21.491Z,18.81
2019-04-20T12:04:59.929Z,18.95
2019-04-20T12:07:24.770Z,19.01
2019-04-20T12:09:58.498Z,19.06
2019-04-20T12:12:39.997Z,19.07
2019-04-20T12:15:04.497Z,19.13
2019-04-20T12:17:37.720Z,19.25
2019-04-20T12:20:10.184Z,19.39
2019-04-20T12:22:42.218Z,19.54
2019-04-20T12:25:14.665Z,19.77
2019-04-20T12:27:50.837Z,20.03
2019-04-20T12:30:21.748Z,20.24
2019-04-20T12:32:57.653Z,20.42
2019-04-20T12:35:27.372Z,20.66
2019-04-20T12:37:59.266Z,20.92
2019-04-20T12:40:32.357Z,21.17
2019-04-20T12:43:04.762Z,21.41
2019-04-20T12:45:37.792Z,21.68
2019-04-20T12:48:09.754Z,22.02
2019-04-20T12:50:41.839Z,22.40
2019-04-20T12:53:14.816Z,22.88
2019-04-20T12:55:46.830Z,23.37
2019-04-20T12:58:18.782Z,23.85
2019-04-20T13:00:54.237Z,24.33
2019-04-20T13:03:27.567Z,24.82
2019-04-20T13:05:59.483Z,25.26
2019-04-20T13:08:36.829Z,25.69
2019-04-20T13:11:10.988Z,26.01
2019-04-20T13:14:06.347Z,26.21
2019-04-20T13:16:39.073Z,26.48
2019-04-20T13:19:11.199Z,26.86
2019-04-20T13:21:43.233Z,27.16
2019-04-20T13:24:15.191Z,27.34
2019-04-20T13:26:49.001Z,27.36
2019-04-20T13:29:21.132Z,27.38
2019-04-20T13:31:54.590Z,27.58
2019-04-20T13:34:26.559Z,27.85
2019-04-20T13:36:58.530Z,28.16
2019-04-20T13:39:30.979Z,28.64
2019-04-20T13:42:11.426Z,28.86
2019-04-20T13:44:36.963Z,28.93
2019-04-20T13:47:09.153Z,28.95
2019-04-20T13:49:41.111Z,28.84
2019-04-20T13:52:12.962Z,28.90
2019-04-20T13:54:45.262Z,29.07
2019-04-20T13:57:24.537Z,29.37
2019-04-20T14:00:02.379Z,29.72
2019-04-20T14:02:42.643Z,29.95
2019-04-20T14:05:16.924Z,30.10
2019-04-20T14:07:49.313Z,30.28
2019-04-20T14:10:22.041Z,30.44
2019-04-20T14:13:01.717Z,30.65
2019-04-20T14:15:29.005Z,30.85
2019-04-20T14:18:02.256Z,31.02
2019-04-20T14:20:34.358Z,30.94
2019-04-20T14:23:07.395Z,30.63
2019-04-20T14:25:39.303Z,30.37
2019-04-20T14:28:11.381Z,30.00
2019-04-20T14:30:45.787Z,29.59
2019-04-20T14:33:18.954Z,29.21
2019-04-20T14:35:51.009Z,28.90
2019-04-20T14:38:24.063Z,28.56
2019-04-20T14:40:56.160Z,28.19
2019-04-20T14:43:30.217Z,27.82
2019-04-20T14:46:02.947Z,27.50
2019-04-20T14:48:36.514Z,27.30
2019-04-20T14:51:09.783Z,27.05
2019-04-20T14:53:43.188Z,27.03
2019-04-20T14:56:15.672Z,27.36
2019-04-20T14:58:47.276Z,27.92
2019-04-20T15:01:36.856Z,28.33
2019-04-20T15:04:13.458Z,28.60
2019-04-20T15:06:42.518Z,28.90
2019-04-20T15:09:14.794Z,29.42
2019-04-20T15:11:46.758Z,29.71
2019-04-20T15:14:18.795Z,29.79
2019-04-20T15:16:50.941Z,29.95
2019-04-20T15:19:25.409Z,30.33
2019-04-20T15:21:59.823Z,30.94
2019-04-20T15:24:31.756Z,31.40
2019-04-20T15:27:04.767Z,31.67
2019-04-20T15:29:38.159Z,32.03
2019-04-20T15:32:10.313Z,32.40
2019-04-20T15:34:42.693Z,32.31
2019-04-20T15:37:14.647Z,31.87
2019-04-20T15:39:47.832Z,31.29
2019-04-20T15:42:19.671Z,30.81
2019-04-20T15:44:51.634Z,30.34
2019-04-20T15:47:23.568Z,29.99
2019-04-20T15:49:55.984Z,29.69
2019-04-20T15:52:36.277Z,29.41
2019-04-20T15:55:10.315Z,29.08
2019-04-20T15:57:36.495Z,28.73
2019-04-20T16:00:10.766Z,28.36
2019-04-20T16:02:47.409Z,28.09
2019-04-20T16:05:22.036Z,28.11
2019-04-20T16:07:58.586Z,28.15
2019-04-20T16:10:28.591Z,27.92
2019-04-20T16:13:11.805Z,27.75
2019-04-20T16:15:35.848Z,27.60
2019-04-20T16:18:10.097Z,27.34
2019-04-20T16:20:50.701Z,27.06
2019-04-20T16:23:16.638Z,26.76
2019-04-20T16:26:07.801Z,26.45
2019-04-20T16:28:39.979Z,26.11
2019-04-20T16:31:14.104Z,25.84
2019-04-20T16:33:46.483Z,25.53
2019-04-20T16:36:18.733Z,25.23
2019-04-20T16:38:51.125Z,24.98
2019-04-20T16:41:24.273Z,24.70
2019-04-20T16:43:57.478Z,24.40
2019-04-20T16:46:30.101Z,24.10
2019-04-20T16:49:03.035Z,23.82
2019-04-20T16:51:34.965Z,23.53
2019-04-20T16:54:07.780Z,23.24
2019-04-20T16:56:39.604Z,22.97
2019-04-20T16:59:12.170Z,22.70
2019-04-20T17:01:44.944Z,22.43
2019-04-20T17:04:22.016Z,22.22
2019-04-20T17:07:10.176Z,21.96
2019-04-20T17:09:43.928Z,21.71
2019-04-20T17:12:15.834Z,21.48
2019-04-20T17:14:47.716Z,21.24
2019-04-20T17:17:19.774Z,21.04
2019-04-20T17:19:51.864Z,20.84
2019-04-20T17:22:23.855Z,20.66
2019-04-20T17:24:56.175Z,20.45
2019-04-20T17:27:46.793Z,20.29
2019-04-20T17:30:24.916Z,20.09
2019-04-20T17:33:02.252Z,19.90
2019-04-20T17:35:43.471Z,19.73
2019-04-20T17:38:08.946Z,19.61
2019-04-20T17:41:01.546Z,19.45
2019-04-20T17:43:25.363Z,19.29
2019-04-20T17:45:57.865Z,19.12
2019-04-20T17:48:37.148Z,18.96
2019-04-20T17:51:17.728Z,18.79
2019-04-20T17:53:44.659Z,18.64
2019-04-20T17:56:10.434Z,18.50
2019-04-20T17:58:43.872Z,18.33
2019-04-20T18:01:51.911Z,18.13
2019-04-20T18:04:41.836Z,17.92
2019-04-20T18:06:58.017Z,17.73
2019-04-20T18:09:44.914Z,17.56
2019-04-20T18:11:59.622Z,17.39
2019-04-20T18:14:43.091Z,17.22
2019-04-20T18:17:17.756Z,17.06
2019-04-20T18:19:41.242Z,16.87
2019-04-20T18:22:13.964Z,16.67
2019-04-20T18:25:10.411Z,16.49
2019-04-20T18:27:37.571Z,16.32
2019-04-20T18:30:11.720Z,16.14
2019-04-20T18:32:29.529Z,15.98
2019-04-20T18:35:06.973Z,15.80
2019-04-20T18:37:36.662Z,15.63
2019-04-20T18:40:14.421Z,15.44
2019-04-20T18:42:44.202Z,15.27
2019-04-20T18:45:29.608Z,15.12
2019-04-20T18:48:11.681Z,14.96
2019-04-20T18:50:32.869Z,14.85
2019-04-20T18:52:58.135Z,14.69
2019-04-20T18:55:40.942Z,14.58
2019-04-20T18:58:04.710Z,14.41
2019-04-20T19:00:41.896Z,14.25
2019-04-20T19:03:18.146Z,14.13
2019-04-20T19:05:43.915Z,13.97
2019-04-20T19:08:18.030Z,13.85
2019-04-20T19:10:57.560Z,13.69
2019-04-20T19:13:42.355Z,13.59
2019-04-20T19:16:31.264Z,13.45
2019-04-20T19:19:09.922Z,13.31
2019-04-20T19:21:35.429Z,13.18
2019-04-20T19:24:12.676Z,13.07
2019-04-20T19:26:44.955Z,12.95
2019-04-20T19:29:23.228Z,12.87
2019-04-20T19:32:07.298Z,12.74
2019-04-20T19:34:37.775Z,12.64
2019-04-20T19:37:04.084Z,12.54
2019-04-20T19:39:44.880Z,12.43
2019-04-20T19:42:18.183Z,12.36
2019-04-20T19:44:51.624Z,12.29
2019-04-20T19:47:28.420Z,12.23
2019-04-20T19:49:56.502Z,12.19
2019-04-20T19:52:43.355Z,12.15
2019-04-20T19:55:10.586Z,12.12
2019-04-20T19:57:42.925Z,12.12
2019-04-20T19:59:58.726Z,12.06
2019-04-20T20:02:31.900Z,12.06
2019-04-20T20:05:08.712Z,12.05
2019-04-20T20:07:42.616Z,12.02
2019-04-20T20:10:12.864Z,11.98
2019-04-20T20:12:49.683Z,11.95
2019-04-20T20:15:26.157Z,11.92
2019-04-20T20:18:11.222Z,11.86
2019-04-20T20:20:47.450Z,11.82
2019-04-20T20:23:00.694Z,11.75
2019-04-20T20:25:37.319Z,11.71
2019-04-20T20:28:25.873Z,11.71
2019-04-20T20:30:53.817Z,11.62
2019-04-20T20:33:27.837Z,11.55
2019-04-20T20:35:58.546Z,11.51
2019-04-20T20:38:27.972Z,11.50
2019-04-20T20:41:05.709Z,11.48
2019-04-20T20:43:40.754Z,11.44
2019-04-20T20:46:18.418Z,11.43
2019-04-20T20:49:00.518Z,11.41
2019-04-20T20:51:34.617Z,11.41
2019-04-20T20:53:54.400Z,11.41
2019-04-20T20:56:24.403Z,11.38
2019-04-20T20:59:01.799Z,11.37
2019-04-20T21:01:27.525Z,11.34
2019-04-20T21:03:58.513Z,11.34
2019-04-20T21:06:32.857Z,11.31
2019-04-20T21:09:06.258Z,11.30
2019-04-20T21:11:40.157Z,11.27
2019-04-20T21:14:21.052Z,11.26
2019-04-20T21:16:57.605Z,11.24
2019-04-20T21:19:35.303Z,11.23
2019-04-20T21:22:04.462Z,11.23
2019-04-20T21:24:30.286Z,11.20
2019-04-20T21:27:08.862Z,11.17
2019-04-20T21:29:45.361Z,11.14
2019-04-20T21:32:14.369Z,11.13
2019-04-20T21:34:49.305Z,11.11
2019-04-20T21:37:20.084Z,11.04
2019-04-20T21:39:56.041Z,11.03
2019-04-20T21:42:28.186Z,11.00
2019-04-20T21:45:08.127Z,10.97
2019-04-20T21:47:36.294Z,10.95
2019-04-20T21:50:27.124Z,10.92
2019-04-20T21:52:46.671Z,10.86
2019-04-20T21:55:16.191Z,10.86
2019-04-20T21:57:51.687Z,10.79
2019-04-20T22:00:39.790Z,10.75
2019-04-20T22:03:11.281Z,10.71
2019-04-20T22:05:42.323Z,10.65
2019-04-20T22:08:16.444Z,10.59
2019-04-20T22:10:50.294Z,10.55
2019-04-20T22:13:28.224Z,10.49
2019-04-20T22:16:02.015Z,10.44
2019-04-20T22:18:31.872Z,10.39
2019-04-20T22:21:12.817Z,10.32
2019-04-20T22:23:57.232Z,10.27
2019-04-20T22:26:24.339Z,10.21
2019-04-20T22:28:44.576Z,10.17
2019-04-20T22:31:16.463Z,10.13
2019-04-20T22:33:48.832Z,10.05
2019-04-20T22:36:25.977Z,10.01
2019-04-20T22:39:09.807Z,9.97
2019-04-20T22:41:52.441Z,9.92
2019-04-20T22:44:22.456Z,9.84
2019-04-20T22:46:54.279Z,9.80
2019-04-20T22:49:41.348Z,9.77
2019-04-20T22:52:13.267Z,9.69
2019-04-20T22:54:48.874Z,9.63
2019-04-20T22:57:19.344Z,9.56
2019-04-20T22:59:52.448Z,9.52
2019-04-20T23:02:16.285Z,9.45
2019-04-20T23:04:48.810Z,9.42
2019-04-20T23:07:20.981Z,9.33
2019-04-20T23:09:56.448Z,9.23
2019-04-20T23:12:27.570Z,9.19
2019-04-20T23:15:00.478Z,9.11
2019-04-20T23:17:39.811Z,9.02
2019-04-20T23:20:15.351Z,8.97
2019-04-20T23:22:45.660Z,8.91
2019-04-20T23:25:15.404Z,8.84
2019-04-20T23:27:51.174Z,8.77
2019-04-20T23:30:26.230Z,8.71
2019-04-20T23:32:55.942Z,8.64
2019-04-20T23:35:28.653Z,8.57
2019-04-20T23:38:08.404Z,8.51
2019-04-20T23:40:35.070Z,8.46
2019-04-20T23:43:28.176Z,8.37
2019-04-20T23:46:20.942Z,8.33
2019-04-20T23:49:13.550Z,8.27
2019-04-20T23:51:59.152Z,8.20
2019-04-20T23:54:20.196Z,8.16
2019-04-20T23:56:48.002Z,8.08
2019-04-20T23:59:30.667Z,8.04
